Route Details

Aircraft Information
Group: Large Widebodies
Types: B744, MD11
Route Data
Distance: 3416nm
Duration: 7h 45m
Origin METAR: SGES 010500Z 11002KT CAVOK 22/22 Q1010
Dest. METAR: KMIA 010453Z 13004KT 10SM CLR 23/20 A3019 RMK AO2 SLP222 T02280200 402890222 $
Freight Data
(for Feb 1, 2023)
Load Factor:
56%
Manifested Cargo: 127,362lbs
Financial History
Total Freight: 138,804lbs
Average Load: 0lbs/flt
Fuel Used: 153,846lbs
Avg. Fuel Used: 0lbs/flt
Fuel Expense: $87,692
Avg. Fuel Expense: $0
Avg. Fuel Cost: $0/lbs
Total Gross Income: $433,068
Pilot Pay: $239
Total Expenses: $89,124
Total Revenue: $253,282
Average Revenue: $0

Capitol Logistics 708




SGES
Guarani International Airport
Ciudad del Este, PY
KMIA
Miami International Airport
Miami, US

Activity Log

Date Flight Route Aircraft Duration
08/18/2022 CPX708 COSTA COSTA A311 FOZ UL216 ESBIP DCT MTU DCT OTAMO DCT MLY DCT URSUS DCT B744 7h 28m